Time;durP1;ratioP1;P1;durP2;ratioP2;P2;SDS_P1;SDS_P2;PMS_P1;PMS_P2;Temp;Humidity;BMP_temperature;BMP_pressure;BME280_temperature;BME280_humidity;BME280_pressure;Samples;Min_cycle;Max_cycle;Signal;HPM_P1;HPM_P2
2022/10/09 00:02:26;;;;;;;41.97;12.50;;;;;;;;;;5054874;28;20828;-61
2022/10/09 00:04:53;;;;;;;66.13;13.60;;;;;;;;;;5060711;28;20482;-62
2022/10/09 00:07:20;;;;;;;54.43;15.30;;;;;;;;;;5067294;28;20478;-61
2022/10/09 00:09:47;;;;;;;83.57;16.33;;;;;;;;;;5064658;28;20492;-61
2022/10/09 00:12:14;;;;;;;62.30;12.93;;;;;;;;;;5067464;28;21766;-60
2022/10/09 00:14:42;;;;;;;60.80;11.50;;;7.40;94.90;;;;;;5065211;28;20799;-61
2022/10/09 00:17:09;;;;;;;53.53;11.77;;;7.30;94.80;;;;;;5072784;28;20517;-62
2022/10/09 00:19:36;;;;;;;100.73;18.13;;;9.80;95.70;;;;;;5065823;28;20482;-61
2022/10/09 00:22:03;;;;;;;71.80;15.50;;;;;;;;;;5066147;28;20924;-61
2022/10/09 00:24:30;;;;;;;101.80;18.77;;;7.30;95.00;;;;;;5069685;28;20844;-61
2022/10/09 00:26:56;;;;;;;71.70;13.40;;;7.40;95.00;;;;;;5066922;28;20490;-61
2022/10/09 00:29:23;;;;;;;48.83;12.60;;;;;;;;;;5066987;28;20994;-61
2022/10/09 00:31:51;;;;;;;58.73;12.43;;;7.20;94.60;;;;;;5070885;28;21207;-62
2022/10/09 00:34:18;;;;;;;64.90;12.30;;;;;;;;;;5071202;28;21250;-60
2022/10/09 00:36:45;;;;;;;86.47;16.33;;;;;;;;;;5069655;28;20486;-62
2022/10/09 00:39:13;;;;;;;67.30;14.37;;;;;;;;;;5069677;28;20474;-61
2022/10/09 00:41:40;;;;;;;64.73;13.17;;;;;;;;;;5059650;28;20485;-62
2022/10/09 00:44:21;;;;;;;50.70;10.93;;;;;;;;;;5054707;28;20482;-61
2022/10/09 00:46:52;;;;;;;72.70;12.93;;;6.90;94.40;;;;;;5065710;28;20470;-62
2022/10/09 00:49:25;;;;;;;35.90;10.27;;;6.90;94.40;;;;;;5069285;28;20482;-62
2022/10/09 00:51:53;;;;;;;79.73;15.80;;;6.90;94.50;;;;;;5070790;28;20470;-62
2022/10/09 00:54:24;;;;;;;46.30;11.17;;;6.90;94.60;;;;;;5069541;28;20478;-61
2022/10/09 00:56:52;;;;;;;74.63;13.43;;;;;;;;;;5070175;28;20486;-61
2022/10/09 00:59:19;;;;;;;37.87;10.20;;;6.70;94.30;;;;;;5071122;28;20808;-61
2022/10/09 01:01:46;;;;;;;51.00;11.53;;;6.80;94.20;;;;;;5069851;28;21181;-61
2022/10/09 01:04:15;;;;;;;43.80;10.73;;;;;;;;;;5069334;28;20474;-61
2022/10/09 01:06:49;;;;;;;82.33;16.30;;;;;;;;;;5071256;28;20861;-61
2022/10/09 01:09:19;;;;;;;50.17;13.17;;;6.80;94.50;;;;;;5069209;28;20480;-61
2022/10/09 01:11:54;;;;;;;69.13;14.70;;;6.70;94.60;;;;;;5068510;28;20471;-61
2022/10/09 01:14:25;;;;;;;53.40;13.60;;;;;;;;;;5069890;28;20478;-61
2022/10/09 01:17:00;;;;;;;56.67;12.70;;;6.70;94.30;;;;;;5070532;28;20486;-62
2022/10/09 01:19:45;;;;;;;88.10;18.73;;;;;;;;;;5066212;28;20482;-61
2022/10/09 01:22:26;;;;;;;63.33;13.93;;;6.60;94.10;;;;;;5063769;28;20589;-61
2022/10/09 01:24:54;;;;;;;51.53;11.30;;;;;;;;;;5056900;28;20470;-61
2022/10/09 01:27:24;;;;;;;64.10;12.67;;;6.50;94.00;;;;;;5069583;28;21048;-60
2022/10/09 01:29:54;;;;;;;72.00;13.43;;;;;;;;;;5070427;28;20494;-61
2022/10/09 01:32:27;;;;;;;77.20;16.00;;;6.40;94.80;;;;;;5068096;28;20479;-61
2022/10/09 01:34:54;;;;;;;59.03;13.57;;;6.50;94.70;;;;;;5064940;28;20484;-60
2022/10/09 01:37:23;;;;;;;70.27;14.70;;;6.50;94.70;;;;;;5070547;28;20478;-61
2022/10/09 01:39:51;;;;;;;49.30;11.17;;;6.50;94.70;;;;;;5069098;28;20852;-61
2022/10/09 01:42:19;;;;;;;67.70;14.33;;;;;;;;;;5068261;28;20475;-61
2022/10/09 01:44:47;;;;;;;67.20;14.90;;;8.50;95.40;;;;;;5068745;28;20997;-61
2022/10/09 01:47:16;;;;;;;61.10;13.13;;;6.40;94.40;;;;;;5057227;28;20497;-61
2022/10/09 01:49:50;;;;;;;54.80;12.27;;;6.30;94.00;;;;;;5056426;28;20471;-61
2022/10/09 01:52:25;;;;;;;57.90;14.03;;;6.10;93.80;;;;;;5053144;28;20529;-60
2022/10/09 01:55:03;;;;;;;51.57;10.83;;;6.00;94.20;;;;;;5060272;28;20618;-61
2022/10/09 01:57:35;;;;;;;107.10;18.40;;;6.00;94.10;;;;;;5068579;28;20683;-61
2022/10/09 02:00:09;;;;;;;49.33;10.03;;;6.00;94.20;;;;;;5068775;28;20486;-61
2022/10/09 02:02:37;;;;;;;89.43;16.83;;;5.30;93.80;;;;;;5062775;28;20477;-60
2022/10/09 02:05:05;;;;;;;72.27;13.63;;;6.00;94.10;;;;;;5054447;28;20488;-61
2022/10/09 02:07:32;;;;;;;94.37;17.03;;;5.90;93.90;;;;;;5075956;28;20663;-61
2022/10/09 02:10:01;;;;;;;66.97;12.20;;;6.00;94.00;;;;;;5071374;28;20501;-60
2022/10/09 02:12:31;;;;;;;92.63;16.40;;;6.00;94.00;;;;;;5065515;28;20760;-61
2022/10/09 02:14:58;;;;;;;63.93;11.00;;;;;;;;;;5073530;28;20495;-60
2022/10/09 02:17:32;;;;;;;70.17;13.47;;;5.90;94.00;;;;;;5071870;28;20933;-60
2022/10/09 02:20:02;;;;;;;57.80;11.97;;;;;;;;;;5071838;28;20752;-60
2022/10/09 02:22:30;;;;;;;90.90;16.00;;;5.90;94.20;;;;;;5066489;28;21202;-60
2022/10/09 02:24:58;;;;;;;52.90;11.10;;;5.90;94.40;;;;;;5062309;28;21168;-61
2022/10/09 02:27:26;;;;;;;57.47;12.70;;;5.90;94.50;;;;;;5057350;28;20478;-60
2022/10/09 02:29:53;;;;;;;55.57;10.17;;;5.90;94.20;;;;;;5073772;28;20485;-61
2022/10/09 02:32:21;;;;;;;36.43;9.40;;;;;;;;;;5070070;28;20483;-60
2022/10/09 02:34:49;;;;;;;55.47;11.40;;;5.80;94.00;;;;;;5071238;28;20996;-61
2022/10/09 02:37:16;;;;;;;40.83;10.30;;;;;;;;;;5072685;28;20474;-61
2022/10/09 02:39:43;;;;;;;61.27;12.03;;;;;;;;;;5072179;28;20477;-60
2022/10/09 02:42:11;;;;;;;58.60;12.30;;;5.70;94.00;;;;;;5071188;28;20479;-61
2022/10/09 02:44:38;;;;;;;89.43;16.03;;;;;;;;;;5070199;28;20489;-61
2022/10/09 02:47:05;;;;;;;76.50;14.47;;;;;;;;;;5072846;28;20478;-60
2022/10/09 02:49:32;;;;;;;84.00;15.40;;;;;;;;;;5072464;28;20943;-60
2022/10/09 02:52:00;;;;;;;66.00;13.60;;;5.60;94.20;;;;;;5063875;28;20490;-60
2022/10/09 02:54:27;;;;;;;68.00;14.17;;;;;;;;;;5070235;28;20829;-60
2022/10/09 02:56:54;;;;;;;55.13;11.53;;;;;;;;;;5073169;28;20486;-61
2022/10/09 02:59:21;;;;;;;49.77;10.80;;;;;;;;;;5069037;28;20694;-61
2022/10/09 03:01:48;;;;;;;65.60;11.77;;;;;;;;;;5069401;28;20951;-62
2022/10/09 03:04:15;;;;;;;63.80;13.27;;;;;;;;;;5072139;28;20969;-63
2022/10/09 03:06:42;;;;;;;51.93;10.20;;;;;;;;;;5068897;28;21404;-63
2022/10/09 03:09:10;;;;;;;46.57;10.83;;;5.60;94.50;;;;;;5059452;28;20494;-63
2022/10/09 03:11:37;;;;;;;97.73;16.73;;;;;;;;;;5070382;28;20494;-62
2022/10/09 03:14:04;;;;;;;59.73;12.67;;;;;;;;;;5069175;28;20478;-63
2022/10/09 03:16:31;;;;;;;96.13;16.37;;;;;;;;;;5059369;28;20754;-62
2022/10/09 03:18:59;;;;;;;59.80;10.77;;;;;;;;;;5071875;28;20489;-62
2022/10/09 03:21:27;;;;;;;82.97;15.97;;;5.40;93.90;;;;;;5072104;28;20481;-63
2022/10/09 03:23:55;;;;;;;57.57;10.43;;;;;;;;;;5073416;28;20500;-62
2022/10/09 03:26:25;;;;;;;54.63;11.80;;;5.30;93.80;;;;;;5069814;28;20478;-62
2022/10/09 03:28:53;;;;;;;54.80;10.87;;;5.30;93.90;;;;;;5066722;28;21079;-62
2022/10/09 03:31:21;;;;;;;44.90;10.73;;;5.30;94.10;;;;;;5071209;28;20477;-62
2022/10/09 03:33:48;;;;;;;58.73;11.17;;;;;;;;;;5071228;28;20478;-62
2022/10/09 03:36:15;;;;;;;55.57;11.30;;;;;;;;;;5072555;28;20478;-62
2022/10/09 03:38:42;;;;;;;65.87;12.23;;;5.50;94.40;;;;;;5070991;28;20482;-62
2022/10/09 03:41:09;;;;;;;67.07;13.37;;;5.40;94.20;;;;;;5067831;28;21103;-62
2022/10/09 03:43:37;;;;;;;93.83;16.70;;;5.40;94.00;;;;;;5075310;28;20474;-62
2022/10/09 03:46:05;;;;;;;61.00;12.50;;;;;;;;;;5072926;28;20482;-62
2022/10/09 03:48:32;;;;;;;95.27;16.83;;;5.30;93.80;;;;;;5068153;28;20564;-62
2022/10/09 03:50:59;;;;;;;51.90;11.53;;;;;;;;;;5045570;28;20685;-62
2022/10/09 03:53:27;;;;;;;64.77;15.47;;;;;;;;;;5069616;28;20498;-62
2022/10/09 03:55:53;;;;;;;45.73;10.47;;;5.30;93.80;;;;;;5072229;28;20983;-61
2022/10/09 03:58:21;;;;;;;38.77;11.90;;;;;;;;;;5064915;28;20490;-63
2022/10/09 04:00:51;;;;;;;61.20;12.80;;;5.30;94.60;;;;;;5076613;28;20533;-62
2022/10/09 04:03:18;;;;;;;46.27;9.97;;;;;;;;;;5075486;28;20866;-62
2022/10/09 04:05:46;;;;;;;62.67;11.37;;;;;;;;;;5071593;28;20482;-60
2022/10/09 04:08:13;;;;;;;84.70;15.97;;;;;;;;;;5074847;28;20485;-60
2022/10/09 04:10:40;;;;;;;57.83;12.53;;;;;;;;;;5075314;28;21021;-60
2022/10/09 04:13:07;;;;;;;67.67;14.33;;;5.40;94.60;;;;;;5071223;28;21246;-60
2022/10/09 04:15:35;;;;;;;100.43;17.50;;;5.30;94.50;;;;;;5074437;28;21151;-60
2022/10/09 04:18:04;;;;;;;94.40;16.10;;;5.30;94.40;;;;;;5075742;28;20478;-60
2022/10/09 04:20:31;;;;;;;107.17;18.43;;;;;;;;;;5060919;28;20486;-60
2022/10/09 04:22:58;;;;;;;68.07;11.50;;;;;;;;;;5062089;28;20513;-60
2022/10/09 04:25:25;;;;;;;40.83;14.97;;;;;;;;;;5065223;28;20474;-60
2022/10/09 04:27:52;;;;;;;63.83;13.43;;;;;;;;;;5073997;28;20815;-60
2022/10/09 04:30:19;;;;;;;42.33;12.03;;;;;;;;;;5075648;28;20481;-60
2022/10/09 04:32:47;;;;;;;57.13;12.80;;;;;;;;;;5072013;28;20478;-60
2022/10/09 04:35:16;;;;;;;65.73;12.60;;;5.30;95.30;;;;;;5075627;28;20571;-60
2022/10/09 04:37:43;;;;;;;44.67;9.97;;;;;;;;;;5076328;28;20766;-60
2022/10/09 04:40:10;;;;;;;67.13;11.93;;;5.40;95.70;;;;;;5074542;28;20482;-60
2022/10/09 04:42:37;;;;;;;71.37;14.30;;;5.40;95.70;;;;;;5065650;28;20474;-60
2022/10/09 04:45:04;;;;;;;70.33;14.33;;;;;;;;;;5088618;28;20479;-61
2022/10/09 04:47:31;;;;;;;58.07;13.50;;;5.50;95.80;;;;;;5063083;28;20489;-62
2022/10/09 04:49:58;;;;;;;43.63;10.10;;;;;;;;;;5075296;28;20478;-61
2022/10/09 04:52:26;;;;;;;71.00;14.80;;;5.50;96.10;;;;;;5067896;28;20471;-61
2022/10/09 04:54:53;;;;;;;45.70;11.17;;;5.60;96.10;;;;;;5061154;28;20773;-61
2022/10/09 04:57:20;;;;;;;40.37;10.10;;;5.60;96.20;;;;;;5074754;28;20482;-61
2022/10/09 04:59:47;;;;;;;43.77;10.07;;;;;;;;;;5072912;28;20490;-61
2022/10/09 05:02:14;;;;;;;48.90;11.67;;;;;;;;;;5074114;28;20476;-61
2022/10/09 05:04:41;;;;;;;68.03;11.50;;;;;;;;;;5074020;28;20482;-61
2022/10/09 05:07:08;;;;;;;67.13;11.80;;;3.70;95.10;;;;;;5052981;28;20486;-61
2022/10/09 05:09:36;;;;;;;71.77;15.50;;;5.70;96.30;;;;;;5064349;28;20783;-61
2022/10/09 05:12:03;;;;;;;69.00;13.50;;;;;;;;;;5059829;28;20470;-61
2022/10/09 05:14:30;;;;;;;96.93;17.53;;;;;;;;;;5069573;28;20478;-61
2022/10/09 05:17:01;;;;;;;51.77;11.40;;;;;;;;;;5072897;28;20467;-61
2022/10/09 05:19:28;;;;;;;99.50;17.57;;;;;;;;;;5073139;28;20896;-62
2022/10/09 05:21:57;;;;;;;81.97;15.80;;;;;;;;;;5074327;28;20971;-61
2022/10/09 05:24:24;;;;;;;48.43;10.87;;;;;;;;;;5072235;28;20485;-60
2022/10/09 05:26:52;;;;;;;50.67;10.77;;;;;;;;;;5074780;28;20475;-61
2022/10/09 05:29:19;;;;;;;50.00;11.93;;;;;;;;;;5050217;28;20486;-61
2022/10/09 05:31:47;;;;;;;48.90;11.53;;;;;;;;;;5087481;28;20846;-62
2022/10/09 05:34:13;;;;;;;43.47;11.20;;;8.70;96.90;;;;;;5074395;28;20495;-61
2022/10/09 05:36:40;;;;;;;63.30;13.37;;;;;;;;;;5073647;28;20474;-61
2022/10/09 05:39:07;;;;;;;51.13;11.40;;;5.80;95.40;;;;;;5070981;28;20822;-61
2022/10/09 05:41:34;;;;;;;85.07;15.20;;;;;;;;;;5071060;28;20604;-60
2022/10/09 05:44:03;;;;;;;58.20;12.40;;;5.80;95.40;;;;;;5063377;28;20470;-60
2022/10/09 05:46:30;;;;;;;67.13;13.60;;;5.80;95.50;;;;;;5083203;28;20502;-61
2022/10/09 05:48:59;;;;;;;53.43;12.07;;;5.80;95.60;;;;;;5073492;28;20483;-61
2022/10/09 05:51:28;;;;;;;57.67;12.50;;;5.80;95.60;;;;;;5075912;28;20490;-60
2022/10/09 05:53:55;;;;;;;42.03;10.17;;;;;;;;;;5074049;28;20493;-61
2022/10/09 05:56:24;;;;;;;46.63;12.97;;;5.80;95.90;;;;;;5074655;28;20485;-61
2022/10/09 05:58:53;;;;;;;45.97;11.40;;;7.50;96.90;;;;;;5073747;28;20490;-61
2022/10/09 06:01:22;;;;;;;44.83;11.53;;;5.80;96.40;;;;;;5072138;28;20470;-60
2022/10/09 06:03:50;;;;;;;42.60;11.13;;;5.90;96.90;;;;;;5073001;28;20483;-60
2022/10/09 06:06:18;;;;;;;31.43;9.70;;;5.80;96.80;;;;;;5071203;28;21009;-60
2022/10/09 06:08:45;;;;;;;40.77;9.33;;;5.80;96.80;;;;;;5073388;28;20486;-60
2022/10/09 06:11:14;;;;;;;55.13;12.77;;;5.80;96.90;;;;;;5070421;28;20497;-60
2022/10/09 06:13:41;;;;;;;60.53;12.90;;;5.80;97.10;;;;;;5066095;28;20492;-61
2022/10/09 06:16:10;;;;;;;40.20;9.17;;;5.80;97.10;;;;;;5055032;28;20994;-61
2022/10/09 06:18:38;;;;;;;77.30;15.77;;;5.90;97.20;;;;;;5070376;28;20483;-60
2022/10/09 06:21:05;;;;;;;73.53;13.30;;;;;;;;;;5071570;28;20474;-60
2022/10/09 06:23:32;;;;;;;84.27;18.20;;;6.00;97.00;;;;;;5071722;28;21116;-60
2022/10/09 06:26:02;;;;;;;39.80;9.50;;;;;;;;;;5075652;28;20479;-60
2022/10/09 06:28:29;;;;;;;79.97;16.40;;;6.00;96.80;;;;;;5072701;28;20494;-60
2022/10/09 06:31:00;;;;;;;50.67;11.30;;;6.00;96.90;;;;;;5069122;28;20487;-61
2022/10/09 06:33:29;;;;;;;46.17;12.70;;;;;;;;;;5070242;28;20514;-60
2022/10/09 06:36:00;;;;;;;43.97;11.40;;;5.90;97.00;;;;;;5072679;28;20486;-60
2022/10/09 06:38:27;;;;;;;80.40;17.40;;;6.00;97.30;;;;;;5069117;28;20581;-60
2022/10/09 06:40:55;;;;;;;32.00;9.07;;;;;;;;;;5059041;28;20475;-60
2022/10/09 06:43:21;;;;;;;46.30;10.53;;;6.00;97.70;;;;;;5069725;28;21204;-60
2022/10/09 06:45:48;;;;;;;58.70;11.07;;;6.10;98.00;;;;;;5072077;28;20482;-60
2022/10/09 06:48:15;;;;;;;43.73;11.00;;;;;;;;;;5038070;28;20471;-60
2022/10/09 06:50:42;;;;;;;65.33;14.37;;;;;;;;;;5072031;28;21062;-61
2022/10/09 06:53:10;;;;;;;50.60;13.37;;;9.30;99.10;;;;;;5072225;28;20490;-61
2022/10/09 06:55:37;;;;;;;75.57;19.13;;;10.70;96.50;;;;;;5071505;28;20478;-61
2022/10/09 06:58:04;;;;;;;59.30;17.00;;;12.10;94.40;;;;;;5058026;28;20487;-61
2022/10/09 07:00:30;;;;;;;47.77;14.80;;;13.30;92.60;;;;;;5068440;28;20493;-61
2022/10/09 07:02:57;;;;;;;29.90;11.03;;;14.40;91.00;;;;;;5072768;28;20681;-62
2022/10/09 07:05:24;;;;;;;40.50;12.40;;;15.40;89.70;;;;;;5071455;28;20482;-63
2022/10/09 07:07:51;;;;;;;37.83;11.53;;;16.40;88.00;;;;;;5073127;28;20483;-63
2022/10/09 07:10:19;;;;;;;34.60;10.50;;;;;;;;;;5067840;28;20480;-63
2022/10/09 07:12:46;;;;;;;38.70;12.20;;;18.10;84.80;;;;;;5056567;28;20483;-63
2022/10/09 07:15:13;;;;;;;37.37;12.97;;;;;;;;;;5063484;28;20576;-63
2022/10/09 07:17:39;;;;;;;43.83;13.43;;;19.60;81.60;;;;;;5076328;28;20817;-63
2022/10/09 07:20:06;;;;;;;30.60;9.67;;;20.40;79.60;;;;;;5066656;28;21013;-63
2022/10/09 07:22:33;;;;;;;35.67;12.67;;;21.10;78.90;;;;;;5066176;28;20497;-63
2022/10/09 07:25:00;;;;;;;34.57;10.47;;;21.70;78.30;;;;;;5067817;28;20573;-64
2022/10/09 07:27:28;;;;;;;27.10;11.27;;;22.20;76.80;;;;;;5070816;28;20991;-63
2022/10/09 07:29:55;;;;;;;45.70;13.40;;;;;;;;;;5069025;28;20482;-63
2022/10/09 07:32:22;;;;;;;32.47;10.40;;;;;;;;;;5067656;28;20935;-63
2022/10/09 07:34:49;;;;;;;31.83;10.93;;;;;;;;;;5070654;28;20482;-64
2022/10/09 07:37:16;;;;;;;26.60;10.10;;;24.30;72.60;;;;;;5069201;28;20497;-63
2022/10/09 07:39:43;;;;;;;24.00;7.90;;;24.60;72.30;;;;;;5042314;28;20505;-63
2022/10/09 07:42:09;;;;;;;25.07;9.93;;;24.90;71.10;;;;;;5081260;28;20488;-64
2022/10/09 07:44:37;;;;;;;35.43;13.63;;;25.20;71.30;;;;;;5067598;28;20869;-63
2022/10/09 07:47:04;;;;;;;31.83;10.43;;;25.30;71.00;;;;;;5066309;28;20474;-63
2022/10/09 07:49:31;;;;;;;49.57;14.30;;;25.40;70.00;;;;;;5072387;28;20762;-64
2022/10/09 07:51:57;;;;;;;25.20;10.40;;;25.30;70.90;;;;;;5068398;28;20486;-63
2022/10/09 07:54:24;;;;;;;25.23;9.27;;;25.30;71.20;;;;;;5069543;28;20493;-64
2022/10/09 07:56:51;;;;;;;34.77;10.57;;;25.20;70.90;;;;;;5068059;28;20486;-63
2022/10/09 07:59:18;;;;;;;23.03;8.33;;;24.90;70.60;;;;;;5066219;28;20837;-63
2022/10/09 08:01:46;;;;;;;29.73;8.70;;;24.80;71.50;;;;;;5067930;28;20478;-63
2022/10/09 08:04:12;;;;;;;29.93;10.90;;;24.40;72.00;;;;;;5067508;28;20517;-63
2022/10/09 08:06:39;;;;;;;28.93;10.80;;;24.10;72.80;;;;;;5069510;28;20481;-63
2022/10/09 08:09:08;;;;;;;28.33;7.90;;;23.80;72.90;;;;;;5078104;28;20901;-63
2022/10/09 08:11:39;;;;;;;41.63;14.30;;;;;;;;;;5067032;28;20510;-64
2022/10/09 08:14:06;;;;;;;31.00;11.10;;;23.00;74.50;;;;;;5067442;28;20477;-63
2022/10/09 08:16:33;;;;;;;40.47;12.63;;;22.80;75.70;;;;;;5069415;28;20453;-63
2022/10/09 08:19:01;;;;;;;27.63;8.90;;;22.40;76.40;;;;;;5068619;28;20772;-63
2022/10/09 08:21:29;;;;;;;21.73;6.20;;;;;;;;;;5054743;28;20457;-64
2022/10/09 08:23:57;;;;;;;27.70;8.17;;;21.90;78.40;;;;;;5054622;28;21262;-62
2022/10/09 08:26:25;;;;;;;33.53;11.27;;;;;;;;;;5063394;28;20826;-63
2022/10/09 08:28:53;;;;;;;32.17;9.90;;;;;;;;;;5068180;28;20478;-63
2022/10/09 08:31:20;;;;;;;28.70;9.57;;;21.20;81.80;;;;;;5068367;28;21219;-63
2022/10/09 08:33:47;;;;;;;26.13;8.63;;;21.00;81.10;;;;;;5061854;28;20502;-63
2022/10/09 08:36:15;;;;;;;28.60;8.50;;;20.90;82.40;;;;;;5068299;28;20977;-63
2022/10/09 08:38:43;;;;;;;37.20;9.93;;;20.80;81.60;;;;;;5070206;28;20470;-62
2022/10/09 08:41:12;;;;;;;36.83;10.73;;;;;;;;;;5070397;28;20486;-63
2022/10/09 08:43:42;;;;;;;55.07;12.90;;;20.50;83.10;;;;;;5067434;28;20486;-63
2022/10/09 08:46:17;;;;;;;27.87;8.53;;;20.10;80.60;;;;;;5073486;28;20470;-63
2022/10/09 08:48:45;;;;;;;41.13;9.70;;;19.90;82.80;;;;;;5063373;28;20490;-62
2022/10/09 08:51:20;;;;;;;27.10;7.13;;;19.40;81.50;;;;;;5071797;28;20489;-62
2022/10/09 08:53:52;;;;;;;35.00;9.93;;;19.30;82.20;;;;;;5064811;28;20481;-62
2022/10/09 08:56:19;;;;;;;34.10;7.87;;;;;;;;;;5064322;28;20486;-62
2022/10/09 08:58:46;;;;;;;49.23;11.57;;;19.10;84.50;;;;;;5060647;28;21017;-61
2022/10/09 09:01:20;;;;;;;41.13;10.73;;;19.00;83.40;;;;;;5062488;28;20509;-62
2022/10/09 09:04:05;;;;;;;35.77;10.03;;;18.80;81.40;;;;;;5059909;28;20474;-61
2022/10/09 09:06:40;;;;;;;46.23;11.40;;;18.90;86.00;;;;;;5071953;28;20483;-61
2022/10/09 09:09:19;;;;;;;38.27;10.37;;;18.90;82.80;;;;;;5072337;28;20696;-61
2022/10/09 09:11:53;;;;;;;29.53;8.10;;;19.00;83.60;;;;;;5074463;28;20485;-61
2022/10/09 09:14:37;;;;;;;31.93;8.73;;;19.10;84.50;;;;;;5074976;28;20478;-61
2022/10/09 09:17:11;;;;;;;36.07;9.47;;;21.90;85.00;;;;;;5075377;28;20487;-62
2022/10/09 09:19:50;;;;;;;57.43;14.43;;;18.90;81.60;;;;;;5072610;28;20835;-61
2022/10/09 09:22:18;;;;;;;32.00;8.80;;;18.80;83.90;;;;;;5052961;28;20579;-60
2022/10/09 09:24:48;;;;;;;37.90;8.67;;;18.80;83.80;;;;;;5066699;28;20990;-61
2022/10/09 09:27:19;;;;;;;29.67;8.90;;;18.90;83.60;;;;;;5060576;28;20478;-61
2022/10/09 09:29:49;;;;;;;41.07;9.37;;;;;;;;;;5061207;28;20478;-61
2022/10/09 09:32:20;;;;;;;41.90;11.10;;;19.10;83.40;;;;;;5060491;28;20848;-62
2022/10/09 09:34:47;;;;;;;36.17;9.63;;;16.00;78.80;;;;;;5063451;28;20814;-61
2022/10/09 09:37:14;;;;;;;52.37;9.20;;;18.90;82.10;;;;;;5074638;28;21246;-61
2022/10/09 09:39:43;;;;;;;48.13;10.27;;;19.10;84.60;;;;;;5073618;28;20478;-61
2022/10/09 09:42:16;;;;;;;35.13;9.17;;;19.20;82.20;;;;;;5069929;28;20490;-61
2022/10/09 09:44:48;;;;;;;36.17;8.60;;;19.20;82.50;;;;;;5066245;28;20522;-61
2022/10/09 09:47:20;;;;;;;30.13;9.43;;;19.20;81.50;;;;;;5068493;28;20680;-61
2022/10/09 09:49:54;;;;;;;26.57;7.13;;;19.40;82.90;;;;;;5059679;28;20655;-61
2022/10/09 09:52:22;;;;;;;35.13;8.80;;;19.40;82.10;;;;;;5070209;28;20485;-62
2022/10/09 09:54:50;;;;;;;48.27;10.00;;;19.50;82.60;;;;;;5073891;28;20485;-61
2022/10/09 09:57:27;;;;;;;29.03;7.80;;;19.60;81.50;;;;;;5059943;28;20470;-61
2022/10/09 09:59:54;;;;;;;36.77;9.60;;;19.60;81.00;;;;;;5069991;28;20803;-61
2022/10/09 10:02:22;;;;;;;32.23;7.90;;;;;;;;;;5072912;28;20939;-61
2022/10/09 10:04:51;;;;;;;36.83;8.73;;;19.90;83.30;;;;;;5074524;28;20494;-61
2022/10/09 10:07:28;;;;;;;26.20;7.43;;;20.00;82.20;;;;;;5064858;28;20553;-62
2022/10/09 10:10:05;;;;;;;32.90;7.30;;;20.00;81.50;;;;;;5061021;28;20501;-63
2022/10/09 10:12:32;;;;;;;64.73;14.83;;;;;;;;;;5067110;28;20481;-63
2022/10/09 10:14:59;;;;;;;43.60;9.80;;;;;;;;;;5086867;28;20467;-62
2022/10/09 10:17:29;;;;;;;43.60;10.63;;;20.00;82.40;;;;;;5071269;28;20481;-63
2022/10/09 10:19:56;;;;;;;41.13;8.27;;;20.00;80.80;;;;;;5072383;28;20494;-62
2022/10/09 10:22:25;;;;;;;33.53;8.20;;;20.00;82.30;;;;;;5072391;28;20477;-62
2022/10/09 10:24:55;;;;;;;38.80;9.77;;;20.00;81.70;;;;;;5061967;28;20485;-62
2022/10/09 10:27:28;;;;;;;28.63;8.17;;;22.10;83.40;;;;;;5066106;28;20978;-62
2022/10/09 10:29:58;;;;;;;37.30;9.03;;;20.20;79.90;;;;;;5074169;28;20465;-62
2022/10/09 10:32:31;;;;;;;39.40;10.47;;;20.30;83.60;;;;;;5070508;28;20474;-62
2022/10/09 10:35:02;;;;;;;26.13;7.80;;;20.30;81.30;;;;;;5073020;28;20531;-63
2022/10/09 10:37:33;;;;;;;54.33;13.50;;;20.30;81.20;;;;;;5069660;28;20581;-62
2022/10/09 10:40:02;;;;;;;27.10;7.80;;;;;;;;;;5072955;28;20474;-62
2022/10/09 10:42:35;;;;;;;49.07;12.87;;;;;;;;;;5071250;28;20840;-63
2022/10/09 10:45:11;;;;;;;31.97;7.97;;;20.40;79.90;;;;;;5073902;28;20502;-62
2022/10/09 10:47:44;;;;;;;65.80;12.97;;;20.60;81.80;;;;;;5067277;28;20667;-62
2022/10/09 10:50:15;;;;;;;36.43;8.47;;;20.60;78.20;;;;;;5065743;28;20487;-62
2022/10/09 10:52:54;;;;;;;38.87;8.70;;;20.60;78.30;;;;;;5061274;28;20482;-63
2022/10/09 10:55:32;;;;;;;26.87;6.07;;;20.60;77.20;;;;;;5065537;28;21173;-62
2022/10/09 10:58:05;;;;;;;45.20;9.43;;;;;;;;;;5065464;28;20453;-62
2022/10/09 11:00:32;;;;;;;73.23;17.03;;;;;;;;;;5068770;28;20997;-62
2022/10/09 11:03:13;;;;;;;27.97;7.20;;;20.20;76.60;;;;;;5070263;28;20487;-62
2022/10/09 11:05:45;;;;;;;20.23;7.40;;;;;;;;;;5072577;28;20482;-63
2022/10/09 11:08:27;;;;;;;25.57;7.20;;;20.00;75.50;;;;;;5060397;28;20993;-63
2022/10/09 11:11:01;;;;;;;20.93;6.30;;;19.90;76.20;;;;;;5069568;28;20913;-62
2022/10/09 11:13:33;;;;;;;49.17;10.97;;;19.90;76.80;;;;;;5060569;28;20493;-62
2022/10/09 11:16:05;;;;;;;24.80;6.63;;;;;;;;;;5069682;28;20787;-62
2022/10/09 11:18:47;;;;;;;49.83;10.83;;;20.10;77.70;;;;;;5070115;28;20986;-62
2022/10/09 11:21:37;;;;;;;40.30;7.00;;;20.50;78.30;;;;;;5066724;28;20483;-63
2022/10/09 11:24:32;;;;;;;57.60;14.23;;;20.50;76.40;;;;;;5060880;28;20569;-63
2022/10/09 11:27:09;;;;;;;34.10;8.10;;;20.30;73.50;;;;;;5062628;28;20470;-62
2022/10/09 11:29:43;;;;;;;27.50;9.10;;;20.30;74.80;;;;;;5069580;28;21082;-61
2022/10/09 11:32:16;;;;;;;33.03;9.60;;;20.40;75.90;;;;;;5068979;28;20858;-63
2022/10/09 11:34:45;;;;;;;28.90;7.60;;;;;;;;;;5064051;28;20497;-63
2022/10/09 11:37:18;;;;;;;30.03;7.93;;;20.60;76.10;;;;;;5069154;28;20861;-63
2022/10/09 11:39:45;;;;;;;16.77;5.50;;;;;;;;;;5068056;28;20489;-63
2022/10/09 11:42:17;;;;;;;17.13;5.77;;;20.70;76.30;;;;;;5066343;28;20692;-62
2022/10/09 11:44:56;;;;;;;17.20;5.87;;;20.60;74.30;;;;;;5067354;28;20478;-63
2022/10/09 11:47:29;;;;;;;18.67;5.17;;;20.70;74.40;;;;;;5071807;28;20484;-63
2022/10/09 11:50:14;;;;;;;16.80;6.13;;;20.60;74.20;;;;;;5052845;28;20489;-63
2022/10/09 11:52:50;;;;;;;23.53;5.90;;;20.60;73.40;;;;;;5071372;28;20483;-63
2022/10/09 11:55:20;;;;;;;14.23;4.90;;;20.90;77.80;;;;;;5072036;28;20489;-63
2022/10/09 11:57:46;;;;;;;9.30;3.90;;;20.60;71.00;;;;;;5072682;28;20483;-63
2022/10/09 12:00:15;;;;;;;21.60;5.00;;;;;;;;;;5071407;28;21003;-63
2022/10/09 12:02:43;;;;;;;16.00;5.70;;;20.90;75.00;;;;;;5070221;28;20561;-62
2022/10/09 12:05:19;;;;;;;15.93;6.00;;;20.60;73.90;;;;;;5069722;28;20474;-63
2022/10/09 12:07:46;;;;;;;15.90;5.20;;;20.70;75.70;;;;;;5063238;28;20486;-62
2022/10/09 12:10:26;;;;;;;11.07;5.03;;;20.90;75.50;;;;;;5070248;28;20479;-63
2022/10/09 12:12:58;;;;;;;10.03;5.00;;;21.00;75.30;;;;;;5071540;28;20483;-63
2022/10/09 12:15:40;;;;;;;15.83;6.90;;;21.10;75.00;;;;;;5070427;28;20479;-63
2022/10/09 12:18:19;;;;;;;14.90;9.50;;;;;;;;;;5050087;28;20485;-63
2022/10/09 12:20:49;;;;;;;13.00;5.17;;;21.40;74.90;;;;;;5058271;28;20482;-63
2022/10/09 12:23:20;;;;;;;20.63;7.10;;;21.50;73.80;;;;;;5067649;28;20471;-63
2022/10/09 12:25:49;;;;;;;12.63;5.40;;;21.40;73.10;;;;;;5069502;28;20545;-63
2022/10/09 12:28:25;;;;;;;12.57;5.53;;;21.30;72.30;;;;;;5063889;28;20465;-63
2022/10/09 12:30:55;;;;;;;12.67;6.17;;;21.20;72.40;;;;;;5068728;28;20557;-63
2022/10/09 12:33:26;;;;;;;19.00;6.93;;;21.30;75.00;;;;;;5068959;28;20699;-63
2022/10/09 12:36:03;;;;;;;21.60;5.90;;;21.50;74.90;;;;;;5067973;28;20573;-63
2022/10/09 12:38:31;;;;;;;11.80;7.17;;;21.70;72.30;;;;;;5061217;28;20470;-63
2022/10/09 12:41:01;;;;;;;15.83;5.30;;;21.80;74.00;;;;;;5058551;28;20944;-63
2022/10/09 12:43:28;;;;;;;12.03;7.47;;;21.90;73.00;;;;;;5067203;28;21002;-62
2022/10/09 12:45:57;;;;;;;12.67;4.93;;;22.00;74.30;;;;;;5069309;28;20487;-62
2022/10/09 12:48:26;;;;;;;20.00;6.63;;;22.10;74.10;;;;;;5067647;28;20478;-63
2022/10/09 12:50:53;;;;;;;8.43;5.57;;;22.20;74.00;;;;;;5067495;28;20493;-64
2022/10/09 12:53:22;;;;;;;12.93;5.80;;;22.20;73.70;;;;;;5066698;28;20453;-64
2022/10/09 12:55:49;;;;;;;22.33;5.67;;;;;;;;;;5071746;28;20489;-63
2022/10/09 12:58:21;;;;;;;9.40;4.40;;;;;;;;;;5065548;28;20477;-64
2022/10/09 13:00:50;;;;;;;8.27;5.60;;;;;;;;;;5071958;28;20483;-64
2022/10/09 13:03:33;;;;;;;11.77;5.83;;;21.90;73.70;;;;;;5057303;28;20551;-64
2022/10/09 13:06:01;;;;;;;15.77;11.73;;;21.90;74.50;;;;;;5065960;28;21075;-63
2022/10/09 13:08:30;;;;;;;17.73;6.93;;;22.00;74.60;;;;;;5069225;28;20739;-64
2022/10/09 13:11:08;;;;;;;7.73;5.00;;;22.10;74.90;;;;;;5066218;28;20494;-63
2022/10/09 13:13:35;;;;;;;34.00;7.53;;;22.20;75.50;;;;;;5069219;28;20496;-64
2022/10/09 13:16:08;;;;;;;13.27;5.47;;;22.00;74.50;;;;;;5068925;28;20474;-63
2022/10/09 13:18:40;;;;;;;15.97;7.93;;;21.80;73.40;;;;;;5065975;27;20552;-63
2022/10/09 13:21:23;;;;;;;6.30;5.57;;;22.00;74.90;;;;;;5050943;28;21321;-63